sensor_id;sensor_type;location;lat;lon;timestamp;pressure;altitude;pressure_sealevel;temperature;humidity
73842;BME280;62184;52.006;5.924;2022-09-02T00:01:14;101004.94;;;16.73;41.93
73842;BME280;62184;52.006;5.924;2022-09-02T00:03:42;101017.75;;;16.68;41.58
73842;BME280;62184;52.006;5.924;2022-09-02T00:06:09;101017.81;;;16.66;41.71
73842;BME280;62184;52.006;5.924;2022-09-02T00:08:36;101007.25;;;16.62;41.73
73842;BME280;62184;52.006;5.924;2022-09-02T00:11:05;101007.34;;;16.59;42.11
73842;BME280;62184;52.006;5.924;2022-09-02T00:13:36;101007.34;;;16.59;41.76
73842;BME280;62184;52.006;5.924;2022-09-02T00:16:04;101010.97;;;16.58;41.88
73842;BME280;62184;52.006;5.924;2022-09-02T00:18:31;101016.53;;;16.55;41.79
73842;BME280;62184;52.006;5.924;2022-09-02T00:20:58;101009.41;;;16.54;42.08
73842;BME280;62184;52.006;5.924;2022-09-02T00:23:24;100997.78;;;16.52;41.76
73842;BME280;62184;52.006;5.924;2022-09-02T00:25:51;101003.34;;;16.49;42.01
73842;BME280;62184;52.006;5.924;2022-09-02T00:28:18;101001.72;;;16.44;42.07
73842;BME280;62184;52.006;5.924;2022-09-02T00:30:47;101003.63;;;16.42;42.10
73842;BME280;62184;52.006;5.924;2022-09-02T00:33:13;101002.03;;;16.38;42.17
73842;BME280;62184;52.006;5.924;2022-09-02T00:35:41;100997.63;;;16.36;41.95
73842;BME280;62184;52.006;5.924;2022-09-02T00:38:08;100995.94;;;16.33;42.07
73842;BME280;62184;52.006;5.924;2022-09-02T00:40:36;100998.81;;;16.30;42.39
73842;BME280;62184;52.006;5.924;2022-09-02T00:43:05;100993.47;;;16.29;42.26
73842;BME280;62184;52.006;5.924;2022-09-02T00:45:32;100990.84;;;16.27;42.47
73842;BME280;62184;52.006;5.924;2022-09-02T00:48:03;100991.06;;;16.23;42.61
73842;BME280;62184;52.006;5.924;2022-09-02T00:50:34;100992.16;;;16.19;42.56
73842;BME280;62184;52.006;5.924;2022-09-02T00:53:04;100994.13;;;16.15;42.78
73842;BME280;62184;52.006;5.924;2022-09-02T00:55:35;100984.41;;;16.11;42.82
73842;BME280;62184;52.006;5.924;2022-09-02T00:58:14;100985.41;;;16.08;42.72
73842;BME280;62184;52.006;5.924;2022-09-02T01:00:45;100982.88;;;16.05;42.70
73842;BME280;62184;52.006;5.924;2022-09-02T01:03:19;100978.50;;;16.03;42.95
73842;BME280;62184;52.006;5.924;2022-09-02T01:05:48;100983.94;;;16.01;42.95
73842;BME280;62184;52.006;5.924;2022-09-02T01:08:19;100989.41;;;16.00;43.22
73842;BME280;62184;52.006;5.924;2022-09-02T01:10:47;100983.34;;;15.95;43.10
73842;BME280;62184;52.006;5.924;2022-09-02T01:13:16;100966.38;;;15.93;43.32
73842;BME280;62184;52.006;5.924;2022-09-02T01:15:47;100971.94;;;15.90;43.36
73842;BME280;62184;52.006;5.924;2022-09-02T01:18:22;100969.28;;;15.88;43.05
73842;BME280;62184;52.006;5.924;2022-09-02T01:20:52;100967.66;;;15.84;43.55
73842;BME280;62184;52.006;5.924;2022-09-02T01:23:21;100969.41;;;15.85;43.37
73842;BME280;62184;52.006;5.924;2022-09-02T01:25:47;100976.50;;;15.88;43.34
73842;BME280;62184;52.006;5.924;2022-09-02T01:28:16;100975.50;;;15.90;43.22
73842;BME280;62184;52.006;5.924;2022-09-02T01:30:47;100977.16;;;15.93;43.36
73842;BME280;62184;52.006;5.924;2022-09-02T01:33:18;100971.75;;;15.93;43.32
73842;BME280;62184;52.006;5.924;2022-09-02T01:35:46;100972.56;;;15.95;43.28
73842;BME280;62184;52.006;5.924;2022-09-02T01:38:13;100975.16;;;15.98;43.16
73842;BME280;62184;52.006;5.924;2022-09-02T01:40:42;100968.72;;;16.00;43.17
73842;BME280;62184;52.006;5.924;2022-09-02T01:43:12;100957.94;;;16.00;43.15
73842;BME280;62184;52.006;5.924;2022-09-02T01:45:42;100956.13;;;16.01;43.31
73842;BME280;62184;52.006;5.924;2022-09-02T01:48:10;100963.28;;;16.02;43.23
73842;BME280;62184;52.006;5.924;2022-09-02T01:50:40;100955.19;;;16.02;42.99
73842;BME280;62184;52.006;5.924;2022-09-02T01:53:10;100963.16;;;16.05;43.32
73842;BME280;62184;52.006;5.924;2022-09-02T01:55:37;100959.56;;;16.04;43.03
73842;BME280;62184;52.006;5.924;2022-09-02T01:58:06;100958.56;;;16.07;43.18
73842;BME280;62184;52.006;5.924;2022-09-02T02:00:32;100954.84;;;16.10;42.78
73842;BME280;62184;52.006;5.924;2022-09-02T02:02:59;100958.41;;;16.10;43.14
73842;BME280;62184;52.006;5.924;2022-09-02T02:05:26;100954.84;;;16.10;42.97
73842;BME280;62184;52.006;5.924;2022-09-02T02:07:52;100956.66;;;16.09;43.25
73842;BME280;62184;52.006;5.924;2022-09-02T02:10:20;100953.03;;;16.10;43.13
73842;BME280;62184;52.006;5.924;2022-09-02T02:12:47;100951.19;;;16.11;42.94
73842;BME280;62184;52.006;5.924;2022-09-02T02:15:18;100956.66;;;16.09;43.09
73842;BME280;62184;52.006;5.924;2022-09-02T02:17:45;100953.09;;;16.08;42.84
73842;BME280;62184;52.006;5.924;2022-09-02T02:20:13;100954.84;;;16.10;43.13
73842;BME280;62184;52.006;5.924;2022-09-02T02:22:41;100958.41;;;16.10;43.12
73842;BME280;62184;52.006;5.924;2022-09-02T02:25:09;100952.13;;;16.10;43.12
73842;BME280;62184;52.006;5.924;2022-09-02T02:27:37;100938.72;;;16.08;43.07
73842;BME280;62184;52.006;5.924;2022-09-02T02:30:05;100945.88;;;16.09;42.61
73842;BME280;62184;52.006;5.924;2022-09-02T02:32:36;100944.06;;;16.10;43.24
73842;BME280;62184;52.006;5.924;2022-09-02T02:35:03;100939.59;;;16.08;42.92
73842;BME280;62184;52.006;5.924;2022-09-02T02:37:30;100944.13;;;16.08;43.21
73842;BME280;62184;52.006;5.924;2022-09-02T02:39:56;100943.34;;;16.06;42.80
73842;BME280;62184;52.006;5.924;2022-09-02T02:42:22;100949.59;;;16.06;42.87
73842;BME280;62184;52.006;5.924;2022-09-02T02:44:49;100941.53;;;16.06;43.11
73842;BME280;62184;52.006;5.924;2022-09-02T02:47:15;100941.44;;;16.08;43.15
73842;BME280;62184;52.006;5.924;2022-09-02T02:49:44;100945.94;;;16.07;43.02
73842;BME280;62184;52.006;5.924;2022-09-02T02:52:11;100946.03;;;16.06;43.17
73842;BME280;62184;52.006;5.924;2022-09-02T02:54:39;100941.66;;;16.03;43.14
73842;BME280;62184;52.006;5.924;2022-09-02T02:57:07;100939.03;;;16.02;43.21
73842;BME280;62184;52.006;5.924;2022-09-02T02:59:34;100945.34;;;16.01;43.43
73842;BME280;62184;52.006;5.924;2022-09-02T03:02:00;100953.44;;;16.01;43.43
73842;BME280;62184;52.006;5.924;2022-09-02T03:04:28;100947.09;;;16.02;43.23
73842;BME280;62184;52.006;5.924;2022-09-02T03:06:57;100939.84;;;16.04;43.14
73842;BME280;62184;52.006;5.924;2022-09-02T03:09:23;100938.09;;;16.03;43.26
73842;BME280;62184;52.006;5.924;2022-09-02T03:11:50;100937.22;;;16.02;43.54
73842;BME280;62184;52.006;5.924;2022-09-02T03:14:16;100929.19;;;16.01;43.55
73842;BME280;62184;52.006;5.924;2022-09-02T03:16:43;100930.22;;;15.98;43.50
73842;BME280;62184;52.006;5.924;2022-09-02T03:19:09;100937.34;;;15.99;43.35
73842;BME280;62184;52.006;5.924;2022-09-02T03:21:36;100931.22;;;15.96;43.32
73842;BME280;62184;52.006;5.924;2022-09-02T03:24:05;100932.16;;;15.95;43.25
73842;BME280;62184;52.006;5.924;2022-09-02T03:26:32;100928.59;;;15.94;43.64
73842;BME280;62184;52.006;5.924;2022-09-02T03:28:58;100927.72;;;15.94;43.39
73842;BME280;62184;52.006;5.924;2022-09-02T03:31:26;100927.72;;;15.94;43.39
73842;BME280;62184;52.006;5.924;2022-09-02T03:33:53;100932.16;;;15.95;43.60
73842;BME280;62184;52.006;5.924;2022-09-02T03:36:22;100931.28;;;15.94;43.23
73842;BME280;62184;52.006;5.924;2022-09-02T03:38:51;100930.34;;;15.95;43.34
73842;BME280;62184;52.006;5.924;2022-09-02T03:41:21;100921.41;;;15.95;43.73
73842;BME280;62184;52.006;5.924;2022-09-02T03:43:48;100927.72;;;15.94;43.56
73842;BME280;62184;52.006;5.924;2022-09-02T03:46:15;100923.44;;;15.90;43.54
73842;BME280;62184;52.006;5.924;2022-09-02T03:48:42;100918.06;;;15.90;43.71
73842;BME280;62184;52.006;5.924;2022-09-02T03:51:09;100920.75;;;15.90;43.79
73842;BME280;62184;52.006;5.924;2022-09-02T03:53:36;100918.13;;;15.88;43.45
73842;BME280;62184;52.006;5.924;2022-09-02T03:56:04;100917.22;;;15.88;43.80
73842;BME280;62184;52.006;5.924;2022-09-02T03:58:34;100911.84;;;15.88;43.53
73842;BME280;62184;52.006;5.924;2022-09-02T04:01:01;100907.47;;;15.85;43.77
73842;BME280;62184;52.006;5.924;2022-09-02T04:03:28;100908.34;;;15.86;43.63
73842;BME280;62184;52.006;5.924;2022-09-02T04:05:54;100905.72;;;15.84;43.73
73842;BME280;62184;52.006;5.924;2022-09-02T04:08:21;100909.34;;;15.83;43.84
73842;BME280;62184;52.006;5.924;2022-09-02T04:10:49;100908.56;;;15.81;43.81
73842;BME280;62184;52.006;5.924;2022-09-02T04:13:16;100909.44;;;15.82;43.69
73842;BME280;62184;52.006;5.924;2022-09-02T04:15:45;100904.13;;;15.80;43.74
73842;BME280;62184;52.006;5.924;2022-09-02T04:18:12;100907.75;;;15.79;43.52
73842;BME280;62184;52.006;5.924;2022-09-02T04:20:40;100901.50;;;15.79;43.99
73842;BME280;62184;52.006;5.924;2022-09-02T04:23:07;100905.06;;;15.79;43.93
73842;BME280;62184;52.006;5.924;2022-09-02T04:25:38;100902.44;;;15.78;44.06
73842;BME280;62184;52.006;5.924;2022-09-02T04:28:05;100900.75;;;15.75;43.94
73842;BME280;62184;52.006;5.924;2022-09-02T04:30:32;100902.44;;;15.78;43.91
73842;BME280;62184;52.006;5.924;2022-09-02T04:33:01;100897.97;;;15.77;43.80
73842;BME280;62184;52.006;5.924;2022-09-02T04:35:27;100892.75;;;15.74;43.77
73842;BME280;62184;52.006;5.924;2022-09-02T04:37:54;100894.47;;;15.75;44.01
73842;BME280;62184;52.006;5.924;2022-09-02T04:40:20;100895.44;;;15.74;43.81
73842;BME280;62184;52.006;5.924;2022-09-02T04:42:46;100897.16;;;15.75;43.82
73842;BME280;62184;52.006;5.924;2022-09-02T04:45:13;100899.88;;;15.75;43.93
73842;BME280;62184;52.006;5.924;2022-09-02T04:47:39;100899.09;;;15.73;44.05
73842;BME280;62184;52.006;5.924;2022-09-02T04:50:08;100900.03;;;15.72;43.95
73842;BME280;62184;52.006;5.924;2022-09-02T04:52:35;100899.22;;;15.69;44.16
73842;BME280;62184;52.006;5.924;2022-09-02T04:55:02;100897.53;;;15.67;44.15
73842;BME280;62184;52.006;5.924;2022-09-02T04:57:29;100897.59;;;15.65;44.24
73842;BME280;62184;52.006;5.924;2022-09-02T04:59:56;100895.94;;;15.63;43.85
73842;BME280;62184;52.006;5.924;2022-09-02T05:02:22;100890.63;;;15.60;43.89
73842;BME280;62184;52.006;5.924;2022-09-02T05:04:49;100895.31;;;15.56;44.14
73842;BME280;62184;52.006;5.924;2022-09-02T05:07:18;100894.53;;;15.53;44.20
73842;BME280;62184;52.006;5.924;2022-09-02T05:09:44;100899.13;;;15.51;44.33
73842;BME280;62184;52.006;5.924;2022-09-02T05:12:11;100893.78;;;15.49;44.31
73842;BME280;62184;52.006;5.924;2022-09-02T05:14:37;100896.47;;;15.49;44.43
73842;BME280;62184;52.006;5.924;2022-09-02T05:17:04;100899.19;;;15.49;44.28
73842;BME280;62184;52.006;5.924;2022-09-02T05:19:30;100896.47;;;15.49;44.68
73842;BME280;62184;52.006;5.924;2022-09-02T05:21:57;100894.66;;;15.50;44.29
73842;BME280;62184;52.006;5.924;2022-09-02T05:24:26;100900.06;;;15.50;44.64
73842;BME280;62184;52.006;5.924;2022-09-02T05:26:52;100890.22;;;15.49;44.37
73842;BME280;62184;52.006;5.924;2022-09-02T05:29:19;100899.19;;;15.49;44.69
73842;BME280;62184;52.006;5.924;2022-09-02T05:31:45;100894.75;;;15.48;44.42
73842;BME280;62184;52.006;5.924;2022-09-02T05:34:13;100892.13;;;15.47;44.55
73842;BME280;62184;52.006;5.924;2022-09-02T05:36:40;100899.28;;;15.48;44.57
73842;BME280;62184;52.006;5.924;2022-09-02T05:39:06;100889.44;;;15.47;44.72
73842;BME280;62184;52.006;5.924;2022-09-02T05:41:35;100894.75;;;15.48;44.75
73842;BME280;62184;52.006;5.924;2022-09-02T05:44:03;100896.34;;;15.52;44.86
73842;BME280;62184;52.006;5.924;2022-09-02T05:46:30;100899.72;;;15.57;44.79
73842;BME280;62184;52.006;5.924;2022-09-02T05:48:57;100899.50;;;15.63;44.57
73842;BME280;62184;52.006;5.924;2022-09-02T05:51:24;100901.78;;;15.73;44.54
73842;BME280;62184;52.006;5.924;2022-09-02T05:53:51;100903.09;;;15.83;44.62
73842;BME280;62184;52.006;5.924;2022-09-02T05:56:17;100899.09;;;15.91;44.56
73842;BME280;62184;52.006;5.924;2022-09-02T05:58:46;100901.25;;;16.03;44.37
73842;BME280;62184;52.006;5.924;2022-09-02T06:01:18;100897.19;;;16.14;44.25
73842;BME280;62184;52.006;5.924;2022-09-02T06:03:44;100894.13;;;16.21;44.12
73842;BME280;62184;52.006;5.924;2022-09-02T06:06:12;100897.38;;;16.28;44.27
73842;BME280;62184;52.006;5.924;2022-09-02T06:08:39;100899.78;;;16.34;44.17
73842;BME280;62184;52.006;5.924;2022-09-02T06:11:08;100896.88;;;16.38;44.07
73842;BME280;62184;52.006;5.924;2022-09-02T06:13:38;100899.22;;;16.46;44.26
73842;BME280;62184;52.006;5.924;2022-09-02T06:16:12;100895.19;;;16.55;44.11
73842;BME280;62184;52.006;5.924;2022-09-02T06:18:39;100894.84;;;16.62;43.72
73842;BME280;62184;52.006;5.924;2022-09-02T06:21:06;100897.03;;;16.73;43.82
73842;BME280;62184;52.006;5.924;2022-09-02T06:23:34;100897.34;;;16.84;43.80
73842;BME280;62184;52.006;5.924;2022-09-02T06:26:02;100901.47;;;16.91;43.54
73842;BME280;62184;52.006;5.924;2022-09-02T06:28:29;100885.97;;;16.96;43.25
73842;BME280;62184;52.006;5.924;2022-09-02T06:30:55;100886.84;;;16.97;43.35
73842;BME280;62184;52.006;5.924;2022-09-02T06:33:24;100892.38;;;16.94;43.19
73842;BME280;62184;52.006;5.924;2022-09-02T06:35:51;100885.41;;;16.90;43.20
73842;BME280;62184;52.006;5.924;2022-09-02T06:38:17;100889.25;;;16.84;43.34
73842;BME280;62184;52.006;5.924;2022-09-02T06:40:48;100894.91;;;16.79;43.39
73842;BME280;62184;52.006;5.924;2022-09-02T06:43:16;100895.97;;;16.75;43.36
73842;BME280;62184;52.006;5.924;2022-09-02T06:45:43;100895.41;;;16.69;43.47
73842;BME280;62184;52.006;5.924;2022-09-02T06:48:11;100895.41;;;16.69;43.39
73842;BME280;62184;52.006;5.924;2022-09-02T06:50:41;100889.06;;;16.70;43.62
73842;BME280;62184;52.006;5.924;2022-09-02T06:53:10;100889.94;;;16.70;43.72
73842;BME280;62184;52.006;5.924;2022-09-02T06:55:38;100891.47;;;16.76;43.81
73842;BME280;62184;52.006;5.924;2022-09-02T06:58:07;100889.25;;;16.84;43.85
73842;BME280;62184;52.006;5.924;2022-09-02T07:00:35;100878.00;;;16.93;43.60
73842;BME280;62184;52.006;5.924;2022-09-02T07:03:01;100877.78;;;16.98;43.73
73842;BME280;62184;52.006;5.924;2022-09-02T07:05:28;100878.97;;;17.09;43.61
73842;BME280;62184;52.006;5.924;2022-09-02T07:07:57;100883.56;;;17.25;43.62
73842;BME280;62184;52.006;5.924;2022-09-02T07:10:24;100875.72;;;17.37;43.26
73842;BME280;62184;52.006;5.924;2022-09-02T07:12:50;100878.56;;;17.51;43.12
73842;BME280;62184;52.006;5.924;2022-09-02T07:15:17;100882.94;;;17.71;43.18
73842;BME280;62184;52.006;5.924;2022-09-02T07:17:43;100880.22;;;17.88;42.76
73842;BME280;62184;52.006;5.924;2022-09-02T07:20:10;100881.47;;;17.99;42.86
73842;BME280;62184;52.006;5.924;2022-09-02T07:22:38;100878.84;;;18.13;42.67
73842;BME280;62184;52.006;5.924;2022-09-02T07:25:08;100872.59;;;18.28;42.75
73842;BME280;62184;52.006;5.924;2022-09-02T07:27:35;100873.38;;;18.46;42.42
73842;BME280;62184;52.006;5.924;2022-09-02T07:30:02;100874.19;;;18.63;42.38
73842;BME280;62184;52.006;5.924;2022-09-02T07:32:30;100858.09;;;18.76;42.25
73842;BME280;62184;52.006;5.924;2022-09-02T07:34:56;100858.28;;;18.89;41.92
73842;BME280;62184;52.006;5.924;2022-09-02T07:37:22;100867.22;;;19.05;41.71
73842;BME280;62184;52.006;5.924;2022-09-02T07:39:49;100871.81;;;19.19;41.39
73842;BME280;62184;52.006;5.924;2022-09-02T07:42:18;100861.91;;;19.33;41.23
73842;BME280;62184;52.006;5.924;2022-09-02T07:44:44;100868.34;;;19.47;41.13
73842;BME280;62184;52.006;5.924;2022-09-02T07:47:11;100868.34;;;19.61;41.29
73842;BME280;62184;52.006;5.924;2022-09-02T07:49:37;100867.41;;;19.76;41.06
73842;BME280;62184;52.006;5.924;2022-09-02T07:52:04;100866.06;;;19.97;40.81
73842;BME280;62184;52.006;5.924;2022-09-02T07:54:30;100860.53;;;20.13;40.63
73842;BME280;62184;52.006;5.924;2022-09-02T07:56:57;100862.19;;;20.30;40.26
73842;BME280;62184;52.006;5.924;2022-09-02T07:59:26;100863.03;;;20.44;39.86
73842;BME280;62184;52.006;5.924;2022-09-02T08:01:52;100862.88;;;20.60;39.74
73842;BME280;62184;52.006;5.924;2022-09-02T08:04:20;100852.63;;;20.78;39.47
73842;BME280;62184;52.006;5.924;2022-09-02T08:06:46;100858.50;;;20.99;39.24
73842;BME280;62184;52.006;5.924;2022-09-02T08:09:13;100860.38;;;21.11;38.81
73842;BME280;62184;52.006;5.924;2022-09-02T08:11:42;100862.56;;;21.18;38.75
73842;BME280;62184;52.006;5.924;2022-09-02T08:14:14;100854.47;;;21.31;39.06
73842;BME280;62184;52.006;5.924;2022-09-02T08:16:45;100859.03;;;21.43;37.95
73842;BME280;62184;52.006;5.924;2022-09-02T08:19:13;100861.75;;;21.43;38.75
73842;BME280;62184;52.006;5.924;2022-09-02T08:21:39;100859.81;;;21.58;38.28
73842;BME280;62184;52.006;5.924;2022-09-02T08:24:06;100857.97;;;21.58;38.29
73842;BME280;62184;52.006;5.924;2022-09-02T08:26:32;100862.19;;;21.62;38.16
73842;BME280;62184;52.006;5.924;2022-09-02T08:29:00;100861.75;;;21.68;38.19
73842;BME280;62184;52.006;5.924;2022-09-02T08:31:26;100859.41;;;21.77;37.77
73842;BME280;62184;52.006;5.924;2022-09-02T08:33:55;100862.44;;;21.85;37.98
73842;BME280;62184;52.006;5.924;2022-09-02T08:36:21;100855.94;;;22.00;37.85
73842;BME280;62184;52.006;5.924;2022-09-02T08:38:48;100839.25;;;22.17;37.03
73842;BME280;62184;52.006;5.924;2022-09-02T08:41:19;100846.81;;;22.37;36.86
73842;BME280;62184;52.006;5.924;2022-09-02T08:43:49;100843.41;;;22.46;36.73
73842;BME280;62184;52.006;5.924;2022-09-02T08:46:17;100840.31;;;22.64;37.24
73842;BME280;62184;52.006;5.924;2022-09-02T08:48:48;100839.25;;;22.77;36.74
73842;BME280;62184;52.006;5.924;2022-09-02T08:51:24;100836.09;;;22.83;36.30
73842;BME280;62184;52.006;5.924;2022-09-02T08:53:59;100839.97;;;22.92;36.58
73842;BME280;62184;52.006;5.924;2022-09-02T08:56:30;100830.63;;;23.07;36.29
73842;BME280;62184;52.006;5.924;2022-09-02T08:58:56;100837.69;;;23.10;35.88
73842;BME280;62184;52.006;5.924;2022-09-02T09:01:28;100833.94;;;23.24;35.93
73842;BME280;62184;52.006;5.924;2022-09-02T09:04:17;100831.25;;;23.35;35.88
73842;BME280;62184;52.006;5.924;2022-09-02T09:07:03;100825.91;;;23.44;35.41
73842;BME280;62184;52.006;5.924;2022-09-02T09:09:53;100832.00;;;23.48;35.84
73842;BME280;62184;52.006;5.924;2022-09-02T09:12:36;100833.03;;;23.58;35.21
73842;BME280;62184;52.006;5.924;2022-09-02T09:15:31;100829.53;;;23.56;35.04
73842;BME280;62184;52.006;5.924;2022-09-02T09:18:10;100825.94;;;23.55;35.34
73842;BME280;62184;52.006;5.924;2022-09-02T09:20:43;100828.44;;;23.58;35.28
73842;BME280;62184;52.006;5.924;2022-09-02T09:23:24;100825.34;;;23.63;35.18
73842;BME280;62184;52.006;5.924;2022-09-02T09:25:58;100821.75;;;23.74;35.35
73842;BME280;62184;52.006;5.924;2022-09-02T09:28:36;100822.13;;;23.80;34.91
73842;BME280;62184;52.006;5.924;2022-09-02T09:31:04;100824.22;;;23.88;35.57
73842;BME280;62184;52.006;5.924;2022-09-02T09:33:31;100821.16;;;24.04;35.25
73842;BME280;62184;52.006;5.924;2022-09-02T09:35:57;100819.53;;;24.23;34.56
73842;BME280;62184;52.006;5.924;2022-09-02T09:38:31;100824.59;;;24.39;34.16
73842;BME280;62184;52.006;5.924;2022-09-02T09:41:11;100813.53;;;24.52;34.34
73842;BME280;62184;52.006;5.924;2022-09-02T09:43:40;100807.56;;;24.69;34.59
73842;BME280;62184;52.006;5.924;2022-09-02T09:46:25;100813.94;;;24.90;34.03
73842;BME280;62184;52.006;5.924;2022-09-02T09:48:53;100808.00;;;25.06;34.34
73842;BME280;62184;52.006;5.924;2022-09-02T09:51:20;100807.69;;;25.20;33.87
73842;BME280;62184;52.006;5.924;2022-09-02T09:53:49;100802.44;;;25.28;33.90
73842;BME280;62184;52.006;5.924;2022-09-02T09:56:37;100812.97;;;25.54;33.50
73842;BME280;62184;52.006;5.924;2022-09-02T09:59:06;100807.63;;;25.73;33.30
73842;BME280;62184;52.006;5.924;2022-09-02T10:01:54;100803.94;;;25.83;32.95
73842;BME280;62184;52.006;5.924;2022-09-02T10:04:27;100795.25;;;25.99;33.31
73842;BME280;62184;52.006;5.924;2022-09-02T10:06:56;100798.50;;;26.24;33.09
73842;BME280;62184;52.006;5.924;2022-09-02T10:09:33;100795.66;;;26.44;32.11
73842;BME280;62184;52.006;5.924;2022-09-02T10:12:02;100784.72;;;26.54;32.43
73842;BME280;62184;52.006;5.924;2022-09-02T10:14:36;100792.84;;;26.65;31.83
73842;BME280;62184;52.006;5.924;2022-09-02T10:17:19;100787.22;;;26.76;31.23
73842;BME280;62184;52.006;5.924;2022-09-02T10:20:02;100792.53;;;26.87;31.74
73842;BME280;62184;52.006;5.924;2022-09-02T10:22:47;100792.00;;;27.03;31.48
73842;BME280;62184;52.006;5.924;2022-09-02T10:25:33;100789.56;;;27.19;31.23
73842;BME280;62184;52.006;5.924;2022-09-02T10:28:15;100776.53;;;27.31;30.97
73842;BME280;62184;52.006;5.924;2022-09-02T10:30:57;100780.13;;;27.31;31.08
73842;BME280;62184;52.006;5.924;2022-09-02T10:33:38;100775.38;;;27.34;30.61
73842;BME280;62184;52.006;5.924;2022-09-02T10:36:15;100770.19;;;27.21;30.87
73842;BME280;62184;52.006;5.924;2022-09-02T10:38:47;100767.31;;;27.03;30.83
73842;BME280;62184;52.006;5.924;2022-09-02T10:41:28;100767.28;;;27.13;31.08
73842;BME280;62184;52.006;5.924;2022-09-02T10:46:58;100764.97;;;27.37;30.57
73842;BME280;62184;52.006;5.924;2022-09-02T10:49:53;100760.94;;;27.31;30.30
73842;BME280;62184;52.006;5.924;2022-09-02T10:52:37;100764.13;;;27.37;31.13
73842;BME280;62184;52.006;5.924;2022-09-02T10:55:23;100770.13;;;27.59;30.75
73842;BME280;62184;52.006;5.924;2022-09-02T10:58:07;100760.25;;;27.76;30.72
73842;BME280;62184;52.006;5.924;2022-09-02T11:00:43;100748.53;;;27.84;30.53
73842;BME280;62184;52.006;5.924;2022-09-02T11:03:19;100747.38;;;27.86;30.03
73842;BME280;62184;52.006;5.924;2022-09-02T11:05:53;100746.03;;;27.90;30.75
73842;BME280;62184;52.006;5.924;2022-09-02T11:08:31;100754.81;;;28.21;30.26
73842;BME280;62184;52.006;5.924;2022-09-02T11:11:06;100737.84;;;28.35;29.58
73842;BME280;62184;52.006;5.924;2022-09-02T11:13:43;100742.16;;;28.38;29.29
73842;BME280;62184;52.006;5.924;2022-09-02T11:16:22;100744.47;;;28.33;29.74
73842;BME280;62184;52.006;5.924;2022-09-02T11:18:59;100740.16;;;28.30;29.37
73842;BME280;62184;52.006;5.924;2022-09-02T11:21:45;100738.03;;;28.24;29.13
73842;BME280;62184;52.006;5.924;2022-09-02T11:24:21;100739.88;;;28.06;29.45
73842;BME280;62184;52.006;5.924;2022-09-02T11:27:00;100744.09;;;28.00;29.57
73842;BME280;62184;52.006;5.924;2022-09-02T11:29:41;100729.00;;;27.87;29.29
73842;BME280;62184;52.006;5.924;2022-09-02T11:32:19;100740.06;;;27.58;30.26
73842;BME280;62184;52.006;5.924;2022-09-02T11:34:54;100735.56;;;27.66;29.94
73842;BME280;62184;52.006;5.924;2022-09-02T11:37:29;100722.94;;;27.83;29.67
73842;BME280;62184;52.006;5.924;2022-09-02T11:40:02;100731.25;;;28.01;29.38
73842;BME280;62184;52.006;5.924;2022-09-02T11:42:41;100722.56;;;27.96;28.71
73842;BME280;62184;52.006;5.924;2022-09-02T11:45:38;100723.09;;;28.09;28.43
73842;BME280;62184;52.006;5.924;2022-09-02T11:48:49;100721.13;;;28.47;27.42
73842;BME280;62184;52.006;5.924;2022-09-02T11:51:50;100711.69;;;28.85;27.22
73842;BME280;62184;52.006;5.924;2022-09-02T11:54:27;100710.94;;;29.18;27.55
73842;BME280;62184;52.006;5.924;2022-09-02T11:57:02;100720.88;;;29.37;27.33
73842;BME280;62184;52.006;5.924;2022-09-02T12:00:04;100718.59;;;29.32;24.98
73842;BME280;62184;52.006;5.924;2022-09-02T12:02:38;100706.19;;;29.02;25.59
73842;BME280;62184;52.006;5.924;2022-09-02T12:08:14;100700.84;;;28.83;26.72
73842;BME280;62184;52.006;5.924;2022-09-02T12:11:36;100706.50;;;28.99;25.39
73842;BME280;62184;52.006;5.924;2022-09-02T12:14:08;100708.06;;;28.84;26.26
73842;BME280;62184;52.006;5.924;2022-09-02T12:16:41;100695.84;;;28.78;26.20
73842;BME280;62184;52.006;5.924;2022-09-02T12:19:38;100693.63;;;29.00;26.47
73842;BME280;62184;52.006;5.924;2022-09-02T12:25:34;100680.00;;;29.50;25.40
73842;BME280;62184;52.006;5.924;2022-09-02T12:28:13;100682.88;;;29.66;25.20
73842;BME280;62184;52.006;5.924;2022-09-02T12:31:09;100680.88;;;29.84;25.19
73842;BME280;62184;52.006;5.924;2022-09-02T12:33:39;100667.84;;;29.95;25.24
73842;BME280;62184;52.006;5.924;2022-09-02T12:36:47;100665.16;;;30.11;24.85
73842;BME280;62184;52.006;5.924;2022-09-02T12:42:24;100665.06;;;30.45;24.36
73842;BME280;62184;52.006;5.924;2022-09-02T12:45:04;100661.06;;;30.55;23.58
73842;BME280;62184;52.006;5.924;2022-09-02T12:47:49;100653.91;;;30.62;23.57
73842;BME280;62184;52.006;5.924;2022-09-02T12:50:25;100657.16;;;30.74;24.04
73842;BME280;62184;52.006;5.924;2022-09-02T12:53:20;100663.34;;;30.84;23.19
73842;BME280;62184;52.006;5.924;2022-09-02T12:55:57;100650.97;;;30.88;23.96
73842;BME280;62184;52.006;5.924;2022-09-02T12:58:29;100646.06;;;31.07;23.54
73842;BME280;62184;52.006;5.924;2022-09-02T13:01:05;100644.34;;;31.30;23.14
73842;BME280;62184;52.006;5.924;2022-09-02T13:03:50;100641.22;;;31.33;22.56
73842;BME280;62184;52.006;5.924;2022-09-02T13:06:34;100646.56;;;31.34;21.76
73842;BME280;62184;52.006;5.924;2022-09-02T13:12:56;100636.97;;;30.82;22.07
73842;BME280;62184;52.006;5.924;2022-09-02T13:16:12;100624.59;;;30.61;22.83
73842;BME280;62184;52.006;5.924;2022-09-02T13:18:59;100632.13;;;30.92;23.51
73842;BME280;62184;52.006;5.924;2022-09-02T13:21:56;100628.50;;;31.16;22.49
73842;BME280;62184;52.006;5.924;2022-09-02T13:24:54;100632.25;;;31.23;22.89
73842;BME280;62184;52.006;5.924;2022-09-02T13:27:57;100639.69;;;31.22;22.67
73842;BME280;62184;52.006;5.924;2022-09-02T13:30:56;100640.59;;;30.90;23.08